createdAt,value
2023-03-06T00:00:55.746Z,90.70
2023-03-06T00:05:56.551Z,91.27
2023-03-06T00:10:57.222Z,91.78
2023-03-06T00:15:58.000Z,92.66
2023-03-06T00:20:58.681Z,93.50
2023-03-06T00:25:59.421Z,94.33
2023-03-06T00:31:00.139Z,94.54
2023-03-06T00:36:00.855Z,94.43
2023-03-06T00:41:01.668Z,94.43
2023-03-06T00:46:02.380Z,94.79
2023-03-06T00:51:03.067Z,94.43
2023-03-06T00:56:03.793Z,94.48
2023-03-06T01:01:04.618Z,95.62
2023-03-06T01:06:05.333Z,95.27
2023-03-06T01:11:06.023Z,95.37
2023-03-06T01:16:06.770Z,95.17
2023-03-06T01:21:07.472Z,95.27
2023-03-06T01:26:08.194Z,94.96
2023-03-06T01:31:08.920Z,95.37
2023-03-06T01:36:09.688Z,95.17
2023-03-06T01:41:10.388Z,95.94
2023-03-06T01:46:11.153Z,96.42
2023-03-06T01:51:11.870Z,96.21
2023-03-06T01:56:12.576Z,96.62
2023-03-06T02:01:13.433Z,96.06
2023-03-06T02:06:14.168Z,96.58
2023-03-06T02:11:14.932Z,96.69
2023-03-06T02:16:15.616Z,95.85
2023-03-06T02:21:16.355Z,96.26
2023-03-06T02:26:17.104Z,96.48
2023-03-06T02:31:17.920Z,96.12
2023-03-06T02:36:18.639Z,96.22
2023-03-06T02:41:19.380Z,96.01
2023-03-06T02:46:20.286Z,95.70
2023-03-06T02:51:21.086Z,95.18
2023-03-06T02:56:21.764Z,95.25
2023-03-06T03:01:22.526Z,94.93
2023-03-06T03:06:23.226Z,94.72
2023-03-06T03:11:23.979Z,94.93
2023-03-06T03:16:24.665Z,94.93
2023-03-06T03:21:25.398Z,94.68
2023-03-06T03:26:26.153Z,94.37
2023-03-06T03:31:26.897Z,94.06
2023-03-06T03:36:27.606Z,93.74
2023-03-06T03:41:28.342Z,93.54
2023-03-06T03:46:29.117Z,93.54
2023-03-06T03:51:29.850Z,93.29
2023-03-06T03:56:30.579Z,93.60
2023-03-06T04:01:39.784Z,94.06
2023-03-06T04:06:32.025Z,94.26
2023-03-06T04:11:32.753Z,94.47
2023-03-06T04:16:33.572Z,94.31
2023-03-06T04:21:34.236Z,94.82
2023-03-06T04:26:34.942Z,94.04
2023-03-06T04:31:35.737Z,94.14
2023-03-06T04:36:36.434Z,94.56
2023-03-06T04:41:37.166Z,94.24
2023-03-06T04:46:37.983Z,94.39
2023-03-06T04:51:38.668Z,94.49
2023-03-06T04:56:39.386Z,94.70
2023-03-06T05:01:40.133Z,94.29
2023-03-06T05:06:40.849Z,93.71
2023-03-06T05:11:41.514Z,93.40
2023-03-06T05:16:42.272Z,93.71
2023-03-06T05:21:43.045Z,94.02
2023-03-06T05:26:43.694Z,93.81
2023-03-06T05:31:44.380Z,93.54
2023-03-06T05:36:45.026Z,93.65
2023-03-06T05:41:45.713Z,93.81
2023-03-06T05:46:46.358Z,93.65
2023-03-06T05:51:47.036Z,93.81
2023-03-06T05:56:47.700Z,93.91
2023-03-06T06:01:48.378Z,94.06
2023-03-06T06:06:49.028Z,95.31
2023-03-06T06:11:49.703Z,95.21
2023-03-06T06:16:50.406Z,94.17
2023-03-06T06:21:51.112Z,93.54
2023-03-06T06:26:51.731Z,93.60
2023-03-06T06:31:52.418Z,93.96
2023-03-06T06:36:53.727Z,94.75
2023-03-06T06:42:09.638Z,94.64
2023-03-06T06:51:56.054Z,93.71
2023-03-06T06:56:55.717Z,91.93
2023-03-06T07:01:56.414Z,92.77
2023-03-06T07:06:57.067Z,92.97
2023-03-06T07:11:57.714Z,92.46
2023-03-06T07:16:58.394Z,91.83
2023-03-06T07:21:59.039Z,92.14
2023-03-06T07:26:59.733Z,91.52
2023-03-06T07:32:00.501Z,91.93
2023-03-06T07:37:01.141Z,91.31
2023-03-06T07:42:01.808Z,92.25
2023-03-06T07:47:02.476Z,92.00
2023-03-06T07:52:03.165Z,91.47
2023-03-06T07:57:03.828Z,90.33
2023-03-06T08:02:04.475Z,89.70
2023-03-06T08:07:05.157Z,90.01
2023-03-06T08:12:05.829Z,90.19
2023-03-06T08:17:06.532Z,88.79
2023-03-06T08:22:07.179Z,88.73
2023-03-06T08:27:07.889Z,89.25
2023-03-06T08:32:08.527Z,87.85
2023-03-06T08:37:09.201Z,87.43
2023-03-06T08:42:09.874Z,86.08
2023-03-06T08:47:10.525Z,86.54
2023-03-06T08:52:11.202Z,86.19
2023-03-06T08:57:11.924Z,85.11
2023-03-06T09:02:12.598Z,85.00
2023-03-06T09:07:13.228Z,83.86
2023-03-06T09:12:13.914Z,84.65
2023-03-06T09:17:14.767Z,82.51
2023-03-06T09:22:15.452Z,82.30
2023-03-06T09:27:16.139Z,82.20
2023-03-06T09:32:16.821Z,81.01
2023-03-06T09:37:17.472Z,80.94
2023-03-06T09:42:18.152Z,82.09
2023-03-06T09:47:18.801Z,80.63
2023-03-06T09:52:19.461Z,79.59
2023-03-06T09:57:20.139Z,80.43
2023-03-06T10:02:27.913Z,79.17
2023-03-06T10:07:21.551Z,79.87
2023-03-06T10:12:24.534Z,78.41
2023-03-06T10:17:22.834Z,80.80
2023-03-06T10:22:23.539Z,80.18
2023-03-06T10:27:24.182Z,79.76
2023-03-06T10:32:24.908Z,79.41
2023-03-06T10:37:25.695Z,79.62
2023-03-06T10:42:28.822Z,78.96
2023-03-06T10:47:27.043Z,79.10
2023-03-06T10:52:27.693Z,78.72
2023-03-06T10:57:28.380Z,80.18
2023-03-06T11:02:29.030Z,80.60
2023-03-06T11:07:29.697Z,80.77
2023-03-06T11:12:30.360Z,79.72
2023-03-06T11:17:31.037Z,78.48
2023-03-06T11:22:31.688Z,79.00
2023-03-06T11:27:32.355Z,79.21
2023-03-06T11:32:33.101Z,78.03
2023-03-06T11:37:33.746Z,78.23
2023-03-06T11:42:34.374Z,77.37
2023-03-06T11:47:35.046Z,77.64
2023-03-06T11:52:35.787Z,76.61
2023-03-06T11:57:36.493Z,75.88
2023-03-06T12:02:37.203Z,75.15
2023-03-06T12:07:37.857Z,75.26
2023-03-06T12:12:38.573Z,74.32
2023-03-06T12:17:39.197Z,74.11
2023-03-06T12:22:39.854Z,73.77
2023-03-06T12:27:40.532Z,74.40
2023-03-06T12:32:41.349Z,72.94
2023-03-06T12:37:41.972Z,71.80
2023-03-06T12:42:42.636Z,72.32
2023-03-06T12:47:43.351Z,72.22
2023-03-06T12:52:44.020Z,72.01
2023-03-06T12:57:44.696Z,72.11
2023-03-06T13:02:45.438Z,70.00
2023-03-06T13:07:46.073Z,69.79
2023-03-06T13:12:46.749Z,69.07
2023-03-06T13:17:47.425Z,69.84
2023-03-06T13:22:48.128Z,67.24
2023-03-06T13:27:48.770Z,68.18
2023-03-06T13:32:49.441Z,65.62
2023-03-06T13:37:50.135Z,65.52
2023-03-06T13:42:50.808Z,67.44
2023-03-06T13:48:15.861Z,67.65
2023-03-06T13:52:54.915Z,68.44
2023-03-06T13:57:52.751Z,64.82
2023-03-06T14:02:53.524Z,65.65
2023-03-06T14:07:54.175Z,66.55
2023-03-06T14:12:54.839Z,65.62
2023-03-06T14:17:55.504Z,65.38
2023-03-06T14:22:56.181Z,65.35
2023-03-06T14:28:05.739Z,61.52
2023-03-06T14:32:58.361Z,63.51
2023-03-06T14:37:58.017Z,64.58
2023-03-06T14:42:58.706Z,61.08
2023-03-06T14:47:59.348Z,62.54
2023-03-06T14:53:00.024Z,62.43
2023-03-06T14:58:00.714Z,63.16
2023-03-06T15:03:01.532Z,62.33
2023-03-06T15:08:02.202Z,62.85
2023-03-06T15:13:02.847Z,61.68
2023-03-06T15:18:03.533Z,62.30
2023-03-06T15:23:04.186Z,62.33
2023-03-06T15:28:04.862Z,63.06
2023-03-06T15:33:05.543Z,64.43
2023-03-06T15:38:06.236Z,64.12
2023-03-06T15:43:06.910Z,64.54
2023-03-06T15:48:07.599Z,65.37
2023-03-06T15:53:08.298Z,62.18
2023-03-06T15:58:08.960Z,61.97
2023-03-06T16:03:16.665Z,62.28
2023-03-06T16:08:10.293Z,62.80
2023-03-06T16:13:10.955Z,63.73
2023-03-06T16:18:11.622Z,64.25
2023-03-06T16:23:12.307Z,64.28
2023-03-06T16:28:12.966Z,64.18
2023-03-06T16:33:13.635Z,64.52
2023-03-06T16:38:14.290Z,65.45
2023-03-06T16:43:14.977Z,65.97
2023-03-06T16:48:15.636Z,65.90
2023-03-06T16:53:16.285Z,65.90
2023-03-06T16:58:16.953Z,65.52
2023-03-06T17:03:17.773Z,66.35
2023-03-06T17:08:18.408Z,67.18
2023-03-06T17:13:19.107Z,68.22
2023-03-06T17:18:19.852Z,68.32
2023-03-06T17:23:20.476Z,68.88
2023-03-06T17:28:21.131Z,70.54
2023-03-06T17:33:21.845Z,71.58
2023-03-06T17:38:22.653Z,72.83
2023-03-06T17:43:23.422Z,73.66
2023-03-06T17:48:24.187Z,74.43
2023-03-06T17:53:24.980Z,75.26
2023-03-06T17:58:25.687Z,76.20
2023-03-06T18:03:26.426Z,76.61
2023-03-06T18:08:27.268Z,76.96
2023-03-06T18:13:27.977Z,77.48
2023-03-06T18:18:28.696Z,77.48
2023-03-06T18:23:29.420Z,78.31
2023-03-06T18:28:30.157Z,78.42
2023-03-06T18:33:30.850Z,78.77
2023-03-06T18:38:31.573Z,78.87
2023-03-06T18:43:32.313Z,79.08
2023-03-06T18:48:33.021Z,79.60
2023-03-06T18:53:33.771Z,81.16
2023-03-06T18:58:34.498Z,82.10
2023-03-06T19:03:35.261Z,83.35
2023-03-06T19:08:35.975Z,83.59
2023-03-06T19:13:36.692Z,83.70
2023-03-06T19:18:37.433Z,84.43
2023-03-06T19:23:38.134Z,84.57
2023-03-06T19:28:38.848Z,85.30
2023-03-06T19:33:39.601Z,86.18
2023-03-06T19:38:40.326Z,86.69
2023-03-06T19:43:41.021Z,86.80
2023-03-06T19:48:41.777Z,86.69
2023-03-06T19:53:42.478Z,86.66
2023-03-06T19:58:43.242Z,86.49
2023-03-06T20:03:43.936Z,86.69
2023-03-06T20:08:44.692Z,87.12
2023-03-06T20:13:47.506Z,86.80
2023-03-06T20:18:45.929Z,86.28
2023-03-06T20:23:46.676Z,86.38
2023-03-06T20:28:47.483Z,86.49
2023-03-06T20:33:48.164Z,86.91
2023-03-06T20:38:48.900Z,86.80
2023-03-06T20:43:49.678Z,86.38
2023-03-06T20:48:50.367Z,87.05
2023-03-06T20:53:51.097Z,86.94
2023-03-06T20:58:51.855Z,87.88
2023-03-06T21:03:52.544Z,88.72
2023-03-06T21:08:53.268Z,89.03
2023-03-06T21:13:53.986Z,89.14
2023-03-06T21:18:54.799Z,89.56
2023-03-06T21:23:55.480Z,89.76
2023-03-06T21:28:56.196Z,89.66
2023-03-06T21:33:56.961Z,89.76
2023-03-06T21:38:57.659Z,89.66
2023-03-06T21:43:58.409Z,89.45
2023-03-06T21:48:59.094Z,89.56
2023-03-06T21:53:59.835Z,89.56
2023-03-06T21:59:00.580Z,89.56
2023-03-06T22:04:08.448Z,89.91
2023-03-06T22:09:02.147Z,90.01
2023-03-06T22:14:02.825Z,89.91
2023-03-06T22:19:03.550Z,90.64
2023-03-06T22:24:04.279Z,90.12
2023-03-06T22:29:05.223Z,89.91
2023-03-06T22:34:05.880Z,89.59
2023-03-06T22:39:06.630Z,89.70
2023-03-06T22:44:07.368Z,90.12
2023-03-06T22:49:08.092Z,89.84
2023-03-06T22:54:08.801Z,89.95
2023-03-06T22:59:09.531Z,90.06
2023-03-06T23:04:10.292Z,90.47
2023-03-06T23:09:11.030Z,90.06
2023-03-06T23:14:11.751Z,90.89
2023-03-06T23:19:12.468Z,91.20
2023-03-06T23:24:13.212Z,90.68
2023-03-06T23:29:13.902Z,90.68
2023-03-06T23:34:14.641Z,91.10
2023-03-06T23:39:15.367Z,91.27
2023-03-06T23:44:16.199Z,91.20
2023-03-06T23:49:16.880Z,91.94
2023-03-06T23:54:17.599Z,92.25
2023-03-06T23:59:18.336Z,92.92
